Time;durP1;ratioP1;P1;durP2;ratioP2;P2;SDS_P1;SDS_P2;PMS_P1;PMS_P2;Temp;Humidity;BMP_temperature;BMP_pressure;BME280_temperature;BME280_humidity;BME280_pressure;Samples;Min_cycle;Max_cycle;Signal;HPM_P1;HPM_P2
2021/12/26 00:00:58;;;;;;;20.60;14.70;;;-3.80;99.90;;;;;;5055008;28;20637;-76
2021/12/26 00:03:27;;;;;;;20.67;14.80;;;-3.50;99.90;;;;;;5049321;28;21233;-76
2021/12/26 00:05:57;;;;;;;24.37;14.70;;;-3.80;99.90;;;;;;5076597;28;20608;-76
2021/12/26 00:08:23;;;;;;;15.67;13.13;;;-3.80;99.90;;;;;;5070107;28;20664;-76
2021/12/26 00:10:49;;;;;;;19.20;14.20;;;-3.80;99.90;;;;;;5052065;28;20683;-76
2021/12/26 00:13:16;;;;;;;20.70;14.47;;;-3.80;99.90;;;;;;5052829;28;21130;-76
2021/12/26 00:15:42;;;;;;;17.83;13.40;;;-3.80;99.90;;;;;;5055465;28;20613;-75
2021/12/26 00:18:10;;;;;;;16.10;12.70;;;-3.70;99.90;;;;;;5055135;28;20644;-76
2021/12/26 00:20:37;;;;;;;16.33;12.03;;;-3.70;99.90;;;;;;5068090;28;20256;-76
2021/12/26 00:23:02;;;;;;;18.90;12.37;;;-3.70;99.90;;;;;;5055516;28;21199;-76
2021/12/26 00:25:28;;;;;;;20.60;12.80;;;-3.60;99.90;;;;;;5055085;28;20613;-76
2021/12/26 00:27:56;;;;;;;18.00;12.00;;;-3.70;99.90;;;;;;5055516;28;20554;-76
2021/12/26 00:30:22;;;;;;;21.43;12.13;;;-3.70;99.90;;;;;;5050613;28;20231;-76
2021/12/26 00:32:49;;;;;;;18.87;11.90;;;-3.70;99.90;;;;;;5073064;28;20641;-76
2021/12/26 00:35:20;;;;;;;17.77;11.97;;;-3.70;99.90;;;;;;5055328;28;20643;-76
2021/12/26 00:37:51;;;;;;;14.70;11.43;;;-3.70;99.90;;;;;;5054212;28;20656;-75
2021/12/26 00:40:19;;;;;;;13.20;10.43;;;-3.40;99.90;;;;;;5050550;28;20705;-76
2021/12/26 00:42:49;;;;;;;18.23;11.50;;;-3.60;99.90;;;;;;5054886;28;20663;-76
2021/12/26 00:45:15;;;;;;;14.20;10.40;;;-3.60;99.90;;;;;;5052403;28;21196;-75
2021/12/26 00:47:43;;;;;;;16.60;11.30;;;-3.60;99.90;;;;;;5054802;28;20644;-76
2021/12/26 00:50:12;;;;;;;16.67;11.33;;;-3.60;99.90;;;;;;5051364;28;20641;-76
2021/12/26 00:52:41;;;;;;;13.90;11.03;;;-3.70;99.90;;;;;;5055577;28;20666;-77
2021/12/26 00:55:09;;;;;;;13.43;11.17;;;-3.70;99.90;;;;;;5042747;28;20617;-76
2021/12/26 00:57:39;;;;;;;18.33;11.83;;;-3.70;99.90;;;;;;5055247;28;20991;-76
2021/12/26 01:00:14;;;;;;;18.43;11.50;;;-3.70;99.90;;;;;;5046081;28;20706;-77
2021/12/26 01:02:40;;;;;;;17.37;11.67;;;-3.80;99.90;;;;;;5068695;28;20693;-76
2021/12/26 01:05:12;;;;;;;16.67;11.80;;;-3.80;99.90;;;;;;5071006;28;20621;-76
2021/12/26 01:10:05;;;;;;;17.60;11.30;;;-3.80;99.90;;;;;;5072613;28;20724;-76
2021/12/26 01:12:31;;;;;;;14.80;11.27;;;-3.80;99.90;;;;;;5049038;28;20638;-76
2021/12/26 01:15:04;;;;;;;12.93;10.60;;;-3.80;99.90;;;;;;5071511;28;20610;-76
2021/12/26 01:17:34;;;;;;;14.97;11.40;;;-3.80;99.90;;;;;;5069501;28;21129;-77
2021/12/26 01:20:03;;;;;;;15.90;12.60;;;-3.70;99.90;;;;;;5072062;28;20706;-76
2021/12/26 01:22:29;;;;;;;18.97;12.57;;;-3.70;99.90;;;;;;5055008;28;20617;-77
2021/12/26 01:24:58;;;;;;;15.33;12.10;;;-3.70;99.90;;;;;;5052602;28;20691;-76
2021/12/26 01:27:27;;;;;;;16.47;11.33;;;-3.70;99.90;;;;;;5072797;28;20183;-76
2021/12/26 01:29:53;;;;;;;15.57;11.97;;;-3.60;99.90;;;;;;5054436;28;20626;-77
2021/12/26 01:32:22;;;;;;;14.47;10.90;;;-3.60;99.90;;;;;;5073315;28;20649;-76
2021/12/26 01:34:48;;;;;;;17.03;11.90;;;-3.60;99.90;;;;;;5070325;28;20667;-76
2021/12/26 01:37:18;;;;;;;14.37;11.37;;;-3.60;99.90;;;;;;5054606;28;20696;-76
2021/12/26 01:39:43;;;;;;;16.70;11.50;;;-3.60;99.90;;;;;;5071461;28;20616;-76
2021/12/26 01:42:10;;;;;;;15.97;11.70;;;-3.60;99.90;;;;;;5072253;28;20586;-76
2021/12/26 01:44:38;;;;;;;15.97;10.20;;;-3.60;99.90;;;;;;5053976;28;20180;-76
2021/12/26 01:47:04;;;;;;;16.67;11.13;;;-3.60;99.90;;;;;;5053305;28;20627;-76
2021/12/26 01:49:31;;;;;;;10.40;9.33;;;-3.60;99.90;;;;;;5071795;28;20672;-77
2021/12/26 01:52:00;;;;;;;11.93;9.03;;;-3.60;99.90;;;;;;5056273;28;21126;-76
2021/12/26 01:55:00;;;;;;;13.60;9.37;;;-3.60;99.90;;;;;;5071035;28;20601;-77
2021/12/26 01:57:18;;;;;;;10.73;9.27;;;-3.60;99.90;;;;;;5072091;28;20625;-76
2021/12/26 01:59:48;;;;;;;10.97;9.00;;;-3.60;99.90;;;;;;5068562;28;20629;-76
2021/12/26 02:02:14;;;;;;;9.10;8.20;;;-3.60;99.90;;;;;;5058936;28;20633;-76
2021/12/26 02:04:40;;;;;;;13.90;9.37;;;-3.60;99.90;;;;;;5054326;28;20646;-77
2021/12/26 02:07:11;;;;;;;10.40;8.97;;;-3.60;99.90;;;;;;5054003;28;20685;-77
2021/12/26 02:09:37;;;;;;;10.70;8.77;;;-3.60;99.90;;;;;;5051980;28;20649;-77
2021/12/26 02:12:04;;;;;;;12.00;9.30;;;-3.60;99.90;;;;;;5056445;28;20646;-76
2021/12/26 02:14:37;;;;;;;11.70;8.47;;;-3.70;99.90;;;;;;5078180;28;20645;-76
2021/12/26 02:17:03;;;;;;;14.47;9.87;;;-3.60;99.90;;;;;;5057876;28;20684;-76
2021/12/26 02:19:28;;;;;;;12.20;8.70;;;-3.70;99.90;;;;;;5071940;28;20949;-77
2021/12/26 02:22:10;;;;;;;12.30;9.10;;;-3.70;99.90;;;;;;5055738;28;20248;-77
2021/12/26 02:27:33;;;;;;;12.17;8.80;;;-3.70;99.90;;;;;;5073039;28;20583;-76
2021/12/26 02:30:12;;;;;;;10.90;8.37;;;-3.70;99.90;;;;;;5056618;28;20625;-77
2021/12/26 02:32:40;;;;;;;13.70;8.50;;;-3.70;99.90;;;;;;5071122;28;21196;-77
2021/12/26 02:35:06;;;;;;;11.63;8.80;;;-3.70;99.90;;;;;;5069334;28;20582;-76
2021/12/26 02:37:32;;;;;;;11.33;9.07;;;-3.70;99.90;;;;;;5071851;28;20637;-77
2021/12/26 02:39:58;;;;;;;10.13;9.07;;;-3.70;99.90;;;;;;5070679;28;20613;-76
2021/12/26 02:42:25;;;;;;;13.63;9.03;;;-3.80;99.90;;;;;;5064846;28;20571;-77
2021/12/26 02:44:53;;;;;;;13.13;8.33;;;-3.80;99.90;;;;;;5056789;28;20606;-76
2021/12/26 02:47:39;;;;;;;12.67;9.00;;;-3.80;99.90;;;;;;5056741;28;20622;-77
2021/12/26 02:50:13;;;;;;;10.67;8.40;;;-3.80;99.90;;;;;;5056188;28;20986;-76
2021/12/26 02:52:39;;;;;;;11.17;8.20;;;-3.80;99.90;;;;;;5072241;28;20644;-76
2021/12/26 02:55:08;;;;;;;12.00;7.90;;;-3.80;99.90;;;;;;5074984;28;21113;-76
2021/12/26 02:57:35;;;;;;;11.27;8.67;;;-3.80;99.90;;;;;;5073026;28;20638;-77
2021/12/26 03:00:22;;;;;;;12.03;9.30;;;-3.80;99.90;;;;;;5053993;28;20652;-76
2021/12/26 03:02:52;;;;;;;10.40;8.63;;;-3.80;99.90;;;;;;5073164;28;20650;-76
2021/12/26 03:05:19;;;;;;;14.13;9.27;;;-3.80;99.90;;;;;;5061972;28;20629;-77
2021/12/26 03:07:46;;;;;;;9.93;8.80;;;-3.80;99.90;;;;;;5067618;28;20656;-77
2021/12/26 03:10:22;;;;;;;9.50;8.60;;;-3.90;99.90;;;;;;5055424;28;20637;-76
2021/12/26 03:13:01;;;;;;;12.20;9.47;;;-3.80;99.90;;;;;;5056130;28;20664;-76
2021/12/26 03:15:28;;;;;;;11.67;9.43;;;-3.90;99.90;;;;;;5074834;28;20670;-76
2021/12/26 03:17:54;;;;;;;11.60;8.97;;;-3.90;99.90;;;;;;5071883;28;20652;-76
2021/12/26 03:20:23;;;;;;;12.87;9.37;;;-3.90;99.90;;;;;;5055653;28;20633;-76
2021/12/26 03:22:49;;;;;;;11.67;8.77;;;-3.90;99.90;;;;;;5055709;28;20597;-76
2021/12/26 03:25:20;;;;;;;15.77;8.80;;;-3.90;99.90;;;;;;5048811;28;20629;-76
2021/12/26 03:27:47;;;;;;;11.57;8.40;;;-3.70;99.90;;;;;;5056241;28;20713;-76
2021/12/26 03:30:17;;;;;;;9.50;8.50;;;-3.90;99.90;;;;;;5077779;28;20630;-76
2021/12/26 03:32:48;;;;;;;10.93;9.07;;;-4.00;99.90;;;;;;5056156;28;20654;-76
2021/12/26 03:35:14;;;;;;;12.00;9.13;;;-3.90;99.90;;;;;;5068650;28;20984;-77
2021/12/26 03:37:41;;;;;;;9.90;7.97;;;-4.00;99.90;;;;;;5072491;28;20691;-77
2021/12/26 03:40:08;;;;;;;8.93;8.00;;;-3.90;99.90;;;;;;5055519;28;20628;-76
2021/12/26 03:42:34;;;;;;;11.03;8.33;;;-3.90;99.90;;;;;;5045291;28;20627;-77
2021/12/26 03:45:00;;;;;;;10.53;8.23;;;-4.00;99.90;;;;;;5055937;28;20693;-76
2021/12/26 03:47:26;;;;;;;13.57;8.17;;;-4.00;99.90;;;;;;5074184;28;21097;-76
2021/12/26 03:49:53;;;;;;;9.70;7.97;;;-4.00;99.90;;;;;;5054441;28;20666;-77
2021/12/26 03:52:22;;;;;;;10.07;7.27;;;-4.00;99.90;;;;;;5067281;28;20211;-76
2021/12/26 03:54:49;;;;;;;9.67;8.17;;;-3.90;99.90;;;;;;5069646;28;20632;-77
2021/12/26 03:57:14;;;;;;;9.43;8.43;;;-4.00;99.90;;;;;;5071782;28;20752;-77
2021/12/26 03:59:40;;;;;;;11.23;7.80;;;-4.00;99.90;;;;;;5044936;28;20728;-76
2021/12/26 04:02:06;;;;;;;10.97;7.93;;;-4.00;99.90;;;;;;5055734;28;20191;-78
2021/12/26 04:04:32;;;;;;;11.73;7.80;;;-4.00;99.90;;;;;;5071662;28;20195;-76
2021/12/26 04:07:03;;;;;;;8.57;7.13;;;-4.00;99.90;;;;;;5055114;28;20621;-77
2021/12/26 04:09:28;;;;;;;10.40;8.00;;;-4.10;99.90;;;;;;5079324;28;20659;-77
2021/12/26 04:11:54;;;;;;;7.90;6.57;;;-4.10;99.90;;;;;;5071414;28;20626;-77
2021/12/26 04:14:25;;;;;;;11.07;8.30;;;-4.10;99.90;;;;;;5071122;28;20199;-76
2021/12/26 04:16:50;;;;;;;9.73;7.30;;;-4.10;99.90;;;;;;5056283;28;20195;-77
2021/12/26 04:19:16;;;;;;;11.37;7.67;;;-4.10;99.90;;;;;;5055611;28;20634;-76
2021/12/26 04:21:42;;;;;;;11.97;8.10;;;-4.10;99.90;;;;;;5054027;28;20220;-77
2021/12/26 04:24:10;;;;;;;9.00;7.73;;;-4.20;99.90;;;;;;5049149;28;20226;-76
2021/12/26 04:26:35;;;;;;;11.77;7.70;;;-4.20;99.90;;;;;;5073049;28;20292;-77
2021/12/26 04:29:04;;;;;;;9.10;7.77;;;-4.20;99.90;;;;;;5071373;28;20637;-76
2021/12/26 04:31:32;;;;;;;10.47;7.10;;;-3.90;99.90;;;;;;5072078;28;20237;-77
2021/12/26 04:33:57;;;;;;;17.30;7.90;;;-4.20;99.90;;;;;;5079846;28;20601;-76
2021/12/26 04:36:23;;;;;;;8.10;6.77;;;-4.20;99.90;;;;;;5077164;28;20617;-76
2021/12/26 04:38:49;;;;;;;9.67;6.63;;;-4.20;99.90;;;;;;5053753;28;20203;-76
2021/12/26 04:41:15;;;;;;;8.10;7.30;;;-4.20;99.90;;;;;;5071794;28;21184;-76
2021/12/26 04:43:41;;;;;;;8.97;6.60;;;-4.20;99.90;;;;;;5054804;28;20660;-76
2021/12/26 04:46:08;;;;;;;7.47;6.73;;;-4.20;99.90;;;;;;5069075;28;20998;-76
2021/12/26 04:48:37;;;;;;;10.00;7.00;;;-4.30;99.90;;;;;;5071552;28;20649;-76
2021/12/26 04:51:05;;;;;;;10.40;6.50;;;-4.30;99.90;;;;;;5065762;28;20630;-76
2021/12/26 04:53:31;;;;;;;10.37;7.00;;;-4.30;99.90;;;;;;5072889;28;20586;-77
2021/12/26 04:56:01;;;;;;;9.90;7.07;;;-4.30;99.90;;;;;;5072688;28;20600;-78
2021/12/26 04:58:27;;;;;;;6.83;6.13;;;-4.40;99.90;;;;;;5046524;28;20746;-77
2021/12/26 05:00:53;;;;;;;10.33;7.23;;;-4.40;99.90;;;;;;5054160;28;21184;-76
2021/12/26 05:03:18;;;;;;;8.10;6.37;;;-4.40;99.90;;;;;;5054613;28;20206;-76
2021/12/26 05:05:44;;;;;;;7.70;6.20;;;-4.40;99.90;;;;;;5054488;28;20214;-76
2021/12/26 05:08:13;;;;;;;9.13;6.33;;;-4.40;99.90;;;;;;5070391;28;20195;-76
2021/12/26 05:10:42;;;;;;;10.53;7.10;;;-4.40;99.90;;;;;;5072490;28;20636;-77
2021/12/26 05:13:13;;;;;;;7.43;6.27;;;-4.40;99.90;;;;;;5055715;28;20657;-76
2021/12/26 05:15:38;;;;;;;9.67;6.10;;;-4.40;99.90;;;;;;5072523;28;20565;-77
2021/12/26 05:18:05;;;;;;;8.10;6.63;;;-4.40;99.90;;;;;;5052627;28;21051;-76
2021/12/26 05:20:31;;;;;;;8.37;6.37;;;-4.40;99.90;;;;;;5070953;28;20223;-77
2021/12/26 05:22:57;;;;;;;8.43;6.20;;;-4.50;99.90;;;;;;5050269;28;20626;-76
2021/12/26 05:25:24;;;;;;;8.23;6.33;;;-4.50;99.90;;;;;;5054426;28;20702;-77
2021/12/26 05:27:57;;;;;;;7.70;6.00;;;-4.50;99.90;;;;;;5049396;28;20641;-76
2021/12/26 05:30:24;;;;;;;9.37;6.50;;;-4.50;99.90;;;;;;5053164;28;20621;-77
2021/12/26 05:32:52;;;;;;;8.63;6.00;;;-4.60;99.90;;;;;;5069717;28;20641;-76
2021/12/26 05:35:18;;;;;;;6.00;5.27;;;-4.60;99.90;;;;;;5052143;28;20633;-77
2021/12/26 05:37:45;;;;;;;8.23;6.00;;;-4.60;99.90;;;;;;5071034;28;20625;-77
2021/12/26 05:40:22;;;;;;;8.10;6.00;;;-4.60;99.90;;;;;;5053258;28;20664;-76
2021/12/26 05:42:48;;;;;;;7.10;5.27;;;-4.60;99.90;;;;;;5072640;28;20589;-76
2021/12/26 05:45:13;;;;;;;14.97;6.20;;;-4.60;99.90;;;;;;5053539;28;20661;-77
2021/12/26 05:47:39;;;;;;;7.77;6.70;;;-4.60;99.90;;;;;;5074137;28;20249;-76
2021/12/26 05:50:10;;;;;;;9.40;6.10;;;-4.60;99.90;;;;;;5061161;28;20750;-76
2021/12/26 05:52:36;;;;;;;9.27;6.60;;;-4.50;99.90;;;;;;5076367;28;21212;-76
2021/12/26 05:55:05;;;;;;;7.43;6.20;;;-4.60;99.90;;;;;;5058316;28;20617;-76
2021/12/26 05:57:31;;;;;;;9.50;7.03;;;-4.60;99.90;;;;;;5058030;28;20597;-76
2021/12/26 05:59:59;;;;;;;7.40;6.70;;;-4.60;99.90;;;;;;5074683;28;20633;-77
2021/12/26 06:02:25;;;;;;;6.67;5.30;;;-4.60;99.90;;;;;;5058194;28;20609;-76
2021/12/26 06:04:51;;;;;;;8.00;6.60;;;-4.60;99.90;;;;;;5075986;28;20605;-76
2021/12/26 06:07:17;;;;;;;7.37;5.93;;;-4.60;99.90;;;;;;5074014;28;20218;-76
2021/12/26 06:09:45;;;;;;;7.77;5.63;;;-4.80;99.90;;;;;;5057672;28;20254;-76
2021/12/26 06:12:13;;;;;;;8.70;6.90;;;-4.70;99.90;;;;;;5054988;28;20641;-76
2021/12/26 06:14:38;;;;;;;9.10;5.83;;;-4.60;99.90;;;;;;5036313;28;20617;-76
2021/12/26 06:17:04;;;;;;;9.00;7.00;;;-4.70;99.90;;;;;;5077292;28;20605;-78
2021/12/26 06:19:32;;;;;;;6.50;5.60;;;-4.60;99.90;;;;;;5082982;28;20222;-76
2021/12/26 06:22:00;;;;;;;6.27;5.47;;;-4.60;99.90;;;;;;5047594;28;20196;-76
2021/12/26 06:24:26;;;;;;;6.77;5.67;;;-4.70;99.90;;;;;;5059004;28;20640;-76
2021/12/26 06:26:53;;;;;;;8.57;6.47;;;-4.70;99.90;;;;;;5064297;28;20613;-76
2021/12/26 06:29:19;;;;;;;5.83;4.53;;;-4.70;99.90;;;;;;5080498;28;20225;-77
2021/12/26 06:31:45;;;;;;;5.67;5.17;;;-4.70;99.90;;;;;;5081564;28;20725;-77
2021/12/26 06:34:10;;;;;;;6.43;5.20;;;-4.70;99.90;;;;;;5081407;28;20705;-76
2021/12/26 06:36:38;;;;;;;9.60;5.90;;;-4.70;99.90;;;;;;5083260;28;20682;-77
2021/12/26 06:39:04;;;;;;;6.17;5.27;;;-4.60;99.90;;;;;;5083664;28;20203;-77
2021/12/26 06:41:30;;;;;;;6.53;4.90;;;-4.60;99.90;;;;;;5082330;28;20618;-76
2021/12/26 06:43:58;;;;;;;8.47;6.00;;;-4.70;99.90;;;;;;5064862;28;20598;-77
2021/12/26 06:46:24;;;;;;;12.67;5.57;;;-4.70;99.90;;;;;;5063772;28;20655;-78
2021/12/26 06:48:49;;;;;;;6.67;5.10;;;-4.70;99.90;;;;;;5062341;28;20656;-76
2021/12/26 06:51:15;;;;;;;7.00;5.13;;;-4.70;99.90;;;;;;5074763;28;20326;-77
2021/12/26 06:53:41;;;;;;;7.63;5.90;;;-4.70;99.90;;;;;;5057864;28;20190;-76
2021/12/26 06:56:07;;;;;;;7.20;5.47;;;-4.80;99.90;;;;;;5074930;28;20197;-77
2021/12/26 06:58:35;;;;;;;7.30;5.57;;;-4.80;99.90;;;;;;5078053;28;20218;-76
2021/12/26 07:01:00;;;;;;;7.70;5.07;;;-4.80;99.90;;;;;;5056916;28;20626;-76
2021/12/26 07:03:26;;;;;;;6.30;5.27;;;-4.80;99.90;;;;;;5051780;28;20987;-76
2021/12/26 07:05:52;;;;;;;7.07;4.70;;;-4.80;99.90;;;;;;5050119;28;20279;-76
2021/12/26 07:08:17;;;;;;;8.00;4.73;;;-4.80;99.90;;;;;;5074009;28;20620;-76
2021/12/26 07:10:44;;;;;;;6.17;4.70;;;-4.80;99.90;;;;;;5053034;28;20224;-78
2021/12/26 07:13:10;;;;;;;7.10;4.90;;;-4.80;99.90;;;;;;5055426;28;20223;-76
2021/12/26 07:15:37;;;;;;;7.00;4.83;;;-4.80;99.90;;;;;;5075125;28;20669;-76
2021/12/26 07:18:03;;;;;;;7.00;4.93;;;-4.80;99.90;;;;;;5057784;28;20644;-76
2021/12/26 07:20:29;;;;;;;9.67;4.63;;;-4.80;99.90;;;;;;5055086;28;21259;-76
2021/12/26 07:22:55;;;;;;;7.47;5.20;;;-4.70;99.90;;;;;;5076664;28;20585;-76
2021/12/26 07:25:21;;;;;;;4.97;4.40;;;-4.60;99.90;;;;;;5056768;28;20716;-76
2021/12/26 07:27:47;;;;;;;6.40;5.03;;;-5.00;99.90;;;;;;5056575;28;20736;-76
2021/12/26 07:30:13;;;;;;;6.20;5.23;;;-4.70;99.90;;;;;;5073097;28;21249;-76
2021/12/26 07:32:39;;;;;;;7.80;5.07;;;-4.60;99.90;;;;;;5074517;28;20648;-76
2021/12/26 07:35:08;;;;;;;6.30;4.40;;;-4.80;99.90;;;;;;5074512;28;20652;-76
2021/12/26 07:37:34;;;;;;;6.10;5.07;;;-4.70;99.90;;;;;;5056792;28;20653;-76
2021/12/26 07:40:00;;;;;;;5.80;5.00;;;-4.60;99.90;;;;;;5071627;28;20633;-76
2021/12/26 07:42:26;;;;;;;6.83;4.83;;;-4.70;99.90;;;;;;5056528;28;20613;-76
2021/12/26 07:44:51;;;;;;;5.70;4.17;;;-4.60;99.90;;;;;;5057888;28;20195;-76
2021/12/26 07:47:17;;;;;;;7.43;4.43;;;-4.80;99.90;;;;;;5057045;28;21047;-76
2021/12/26 07:49:43;;;;;;;7.20;4.27;;;-4.80;99.90;;;;;;5072563;28;20679;-76
2021/12/26 07:52:16;;;;;;;9.90;5.00;;;-4.80;99.90;;;;;;5056213;28;20695;-76
2021/12/26 07:54:43;;;;;;;6.57;4.87;;;-4.80;99.90;;;;;;5056691;28;21183;-76
2021/12/26 07:57:09;;;;;;;7.07;4.57;;;-4.60;99.90;;;;;;5051693;28;21607;-76
2021/12/26 07:59:35;;;;;;;8.13;4.90;;;-4.60;99.90;;;;;;5054793;28;21130;-76
2021/12/26 08:02:01;;;;;;;5.53;4.70;;;-4.80;99.90;;;;;;5046589;28;20617;-76
2021/12/26 08:04:28;;;;;;;5.83;4.60;;;-5.00;99.90;;;;;;5073708;28;20625;-76
2021/12/26 08:06:54;;;;;;;7.60;5.07;;;-4.60;99.90;;;;;;5056493;28;20616;-76
2021/12/26 08:09:20;;;;;;;8.27;5.40;;;-4.90;99.90;;;;;;5073661;28;20626;-76
2021/12/26 08:11:46;;;;;;;6.93;5.03;;;-4.90;99.90;;;;;;5073259;28;20685;-76
2021/12/26 08:14:12;;;;;;;7.10;5.30;;;-4.70;99.90;;;;;;5052819;28;20997;-76
2021/12/26 08:16:38;;;;;;;5.13;4.60;;;-4.80;99.90;;;;;;5056017;28;21054;-76
2021/12/26 08:19:06;;;;;;;6.37;4.80;;;-4.60;99.90;;;;;;5076446;28;20649;-76
2021/12/26 08:21:33;;;;;;;7.77;5.20;;;-4.70;99.90;;;;;;5073378;28;20633;-76
2021/12/26 08:23:59;;;;;;;5.23;4.63;;;-4.70;99.90;;;;;;5074091;28;20621;-76
2021/12/26 08:26:25;;;;;;;6.80;4.87;;;-4.70;99.90;;;;;;5073320;28;20606;-76
2021/12/26 08:28:51;;;;;;;6.63;4.80;;;-4.70;99.90;;;;;;5055377;28;21079;-76
2021/12/26 08:31:18;;;;;;;5.20;4.70;;;-4.80;99.90;;;;;;5072846;28;20661;-76
2021/12/26 08:33:44;;;;;;;6.67;4.80;;;-4.70;99.90;;;;;;5054675;28;20622;-76
2021/12/26 08:36:10;;;;;;;7.10;5.30;;;-4.70;99.90;;;;;;5055851;28;20729;-76
2021/12/26 08:38:38;;;;;;;5.53;4.37;;;-4.60;99.90;;;;;;5073237;28;20203;-76
2021/12/26 08:41:03;;;;;;;5.77;4.60;;;-4.70;99.90;;;;;;5053068;28;21188;-76
2021/12/26 08:43:30;;;;;;;7.70;5.43;;;-4.70;99.90;;;;;;5055290;28;20613;-76
2021/12/26 08:45:55;;;;;;;7.50;4.80;;;-4.70;99.90;;;;;;5073061;28;21375;-76
2021/12/26 08:48:21;;;;;;;7.93;5.63;;;-4.80;99.90;;;;;;5054633;28;20658;-76
2021/12/26 08:50:48;;;;;;;7.50;5.30;;;-4.70;99.90;;;;;;5054148;28;20675;-76
2021/12/26 08:53:14;;;;;;;9.00;5.63;;;-4.60;99.90;;;;;;5073172;28;20652;-76
2021/12/26 08:55:40;;;;;;;6.37;5.07;;;-4.70;99.90;;;;;;5072709;28;20722;-76
2021/12/26 08:58:06;;;;;;;8.47;5.50;;;-4.70;99.90;;;;;;5071210;28;20650;-76
2021/12/26 09:00:33;;;;;;;8.10;5.27;;;-4.60;99.90;;;;;;5053720;28;21053;-76
2021/12/26 09:02:59;;;;;;;5.20;4.70;;;-4.40;99.90;;;;;;5073195;28;20685;-77
2021/12/26 09:05:25;;;;;;;8.23;4.97;;;-4.60;99.90;;;;;;5055583;28;21332;-76
2021/12/26 09:07:52;;;;;;;6.83;5.23;;;-4.80;99.90;;;;;;5071052;28;20649;-76
2021/12/26 09:10:18;;;;;;;11.10;5.80;;;-4.40;99.90;;;;;;5074614;28;20687;-77
2021/12/26 09:12:44;;;;;;;6.30;5.30;;;-4.40;99.90;;;;;;5056484;28;20656;-76
2021/12/26 09:15:11;;;;;;;5.00;4.50;;;-4.60;99.90;;;;;;5057355;28;20634;-77
2021/12/26 09:17:38;;;;;;;6.17;4.63;;;-4.50;99.90;;;;;;5080303;28;20626;-77
2021/12/26 09:20:06;;;;;;;7.97;5.40;;;-4.40;99.90;;;;;;5080688;28;20647;-76
2021/12/26 09:22:32;;;;;;;6.87;5.10;;;-4.60;99.90;;;;;;5072735;28;20629;-76
2021/12/26 09:24:57;;;;;;;7.90;5.20;;;-4.20;99.90;;;;;;5086526;28;20652;-78
2021/12/26 09:27:23;;;;;;;7.00;5.40;;;-4.30;99.90;;;;;;5087257;28;20614;-75
2021/12/26 09:29:49;;;;;;;6.30;4.83;;;-4.10;99.90;;;;;;5081492;28;20625;-75
2021/12/26 09:32:16;;;;;;;7.63;4.80;;;-4.20;99.90;;;;;;5077844;28;20656;-75
2021/12/26 09:34:42;;;;;;;6.70;5.20;;;-4.30;99.90;;;;;;5059422;28;20598;-75
2021/12/26 09:37:09;;;;;;;9.63;6.00;;;-4.30;99.90;;;;;;5057556;28;20619;-75
2021/12/26 09:39:36;;;;;;;8.83;5.73;;;-4.10;99.90;;;;;;5055472;28;20214;-77
2021/12/26 09:42:03;;;;;;;7.93;6.27;;;-4.20;99.90;;;;;;5053671;28;20653;-77
2021/12/26 09:44:29;;;;;;;6.50;5.03;;;-4.20;99.90;;;;;;5058829;28;20704;-75
2021/12/26 09:46:55;;;;;;;9.00;5.70;;;-4.00;99.90;;;;;;5059736;28;20614;-77
2021/12/26 09:49:21;;;;;;;6.17;5.23;;;-4.10;99.90;;;;;;5076734;28;20706;-75
2021/12/26 09:51:49;;;;;;;5.90;4.90;;;-3.90;99.90;;;;;;5058658;28;20645;-75
2021/12/26 09:54:17;;;;;;;6.80;5.23;;;-4.00;99.90;;;;;;5057471;28;20621;-75
2021/12/26 09:56:43;;;;;;;6.67;5.20;;;-4.00;99.90;;;;;;5056787;28;21181;-75
2021/12/26 09:59:22;;;;;;;5.97;4.80;;;-4.00;99.90;;;;;;5055803;28;20665;-75
2021/12/26 10:01:55;;;;;;;7.13;5.10;;;-3.90;99.90;;;;;;5076090;28;20636;-75
2021/12/26 10:04:33;;;;;;;6.67;4.70;;;-4.10;99.90;;;;;;5076723;28;20585;-75
2021/12/26 10:07:11;;;;;;;6.00;4.80;;;-3.80;99.90;;;;;;5055478;28;20727;-76
2021/12/26 10:09:41;;;;;;;7.90;6.03;;;-3.90;99.90;;;;;;5075937;28;20605;-76
2021/12/26 10:12:09;;;;;;;6.03;5.00;;;-3.60;99.90;;;;;;5053874;28;20688;-77
2021/12/26 10:14:37;;;;;;;5.30;4.80;;;-3.70;99.90;;;;;;5031086;28;20646;-75
2021/12/26 10:17:15;;;;;;;5.10;4.60;;;-3.70;99.90;;;;;;5056061;28;20664;-78
2021/12/26 10:19:45;;;;;;;6.27;4.63;;;-3.70;99.90;;;;;;5072066;28;20613;-75
2021/12/26 10:22:15;;;;;;;6.93;5.27;;;-3.80;99.90;;;;;;5076721;28;20693;-76
2021/12/26 10:24:44;;;;;;;5.17;4.67;;;-3.50;99.90;;;;;;5077094;28;20625;-76
2021/12/26 10:27:13;;;;;;;4.57;4.00;;;-3.30;99.90;;;;;;5064849;28;20699;-76
2021/12/26 10:29:53;;;;;;;5.77;4.50;;;-3.20;99.90;;;;;;5057660;28;21188;-75
2021/12/26 10:32:34;;;;;;;5.70;4.13;;;-3.10;99.90;;;;;;5057841;28;20648;-77
2021/12/26 10:35:16;;;;;;;5.73;4.67;;;-3.20;99.90;;;;;;5073460;28;20646;-76
2021/12/26 10:37:48;;;;;;;5.60;4.10;;;-3.10;99.90;;;;;;5074454;28;20680;-75
2021/12/26 10:40:22;;;;;;;6.50;4.40;;;-3.00;99.90;;;;;;5053927;28;20652;-76
2021/12/26 10:42:50;;;;;;;5.07;3.70;;;-2.90;99.90;;;;;;5082750;28;20582;-78
2021/12/26 10:45:20;;;;;;;4.60;4.10;;;-2.80;99.90;;;;;;5089389;28;20698;-76
2021/12/26 10:47:54;;;;;;;6.20;4.30;;;-2.70;99.90;;;;;;5064153;28;20784;-76
2021/12/26 10:50:22;;;;;;;6.10;4.27;;;-2.70;99.90;;;;;;5064274;28;20647;-76
2021/12/26 10:52:59;;;;;;;7.30;4.37;;;-2.60;99.90;;;;;;5075588;28;20649;-76
2021/12/26 10:55:30;;;;;;;5.53;4.50;;;-2.50;99.90;;;;;;5056596;28;20617;-75
2021/12/26 10:57:56;;;;;;;5.50;4.87;;;-2.30;99.90;;;;;;5048173;28;20698;-75
2021/12/26 11:00:23;;;;;;;5.87;4.60;;;-2.60;99.90;;;;;;5057016;28;20655;-75
2021/12/26 11:03:02;;;;;;;5.00;3.90;;;-2.40;99.90;;;;;;5075731;28;20629;-76
2021/12/26 11:05:34;;;;;;;4.20;3.50;;;-2.30;99.90;;;;;;5072615;28;20633;-75
2021/12/26 11:08:03;;;;;;;5.10;4.00;;;-2.20;99.90;;;;;;5054579;28;20649;-75
2021/12/26 11:10:34;;;;;;;7.20;3.77;;;-2.10;99.90;;;;;;5072367;28;21031;-76
2021/12/26 11:13:02;;;;;;;5.53;4.27;;;-2.10;99.90;;;;;;5057854;28;20646;-75
2021/12/26 11:15:38;;;;;;;4.27;3.87;;;-2.10;99.90;;;;;;5071703;28;20626;-75
2021/12/26 11:18:06;;;;;;;4.10;3.37;;;-2.00;99.90;;;;;;5075466;28;21008;-75
2021/12/26 11:20:43;;;;;;;6.23;4.70;;;-2.00;99.90;;;;;;5055311;28;20629;-76
2021/12/26 11:23:12;;;;;;;6.03;3.23;;;-1.90;99.90;;;;;;5073895;28;20600;-76
2021/12/26 11:25:51;;;;;;;5.20;4.03;;;-2.00;99.90;;;;;;5075045;28;21221;-76
2021/12/26 11:28:26;;;;;;;5.70;4.20;;;-2.10;99.90;;;;;;5047245;28;20648;-75
2021/12/26 11:30:57;;;;;;;4.57;3.53;;;-1.90;99.90;;;;;;5072630;28;20626;-75
2021/12/26 11:33:24;;;;;;;7.17;4.03;;;-2.00;99.90;;;;;;5071613;28;20632;-76
2021/12/26 11:35:51;;;;;;;4.80;3.73;;;-1.80;99.90;;;;;;5074508;28;20622;-75
2021/12/26 11:38:21;;;;;;;3.57;3.23;;;-1.90;99.90;;;;;;5056429;28;20641;-75
2021/12/26 11:40:54;;;;;;;5.67;3.50;;;-1.80;99.90;;;;;;5051653;28;20649;-75
2021/12/26 11:43:44;;;;;;;4.00;3.43;;;-1.70;99.90;;;;;;5056513;28;21254;-75
2021/12/26 11:46:38;;;;;;;4.67;3.80;;;-1.90;99.90;;;;;;5074999;28;20593;-75
2021/12/26 11:49:42;;;;;;;3.80;3.50;;;-1.60;99.90;;;;;;5052465;28;20654;-75
2021/12/26 11:52:29;;;;;;;4.53;3.83;;;-1.80;99.90;;;;;;5052878;28;20649;-76
2021/12/26 11:55:13;;;;;;;5.40;3.10;;;-1.50;99.90;;;;;;5070986;28;20671;-80
2021/12/26 11:58:02;;;;;;;4.13;3.30;;;-1.70;99.90;;;;;;5050809;28;20637;-75
2021/12/26 12:00:38;;;;;;;5.33;4.00;;;-1.40;99.90;;;;;;5070966;28;20633;-75
2021/12/26 12:03:29;;;;;;;5.53;4.53;;;-1.40;99.90;;;;;;5070273;28;20614;-79
2021/12/26 12:05:56;;;;;;;5.60;4.00;;;-1.30;99.90;;;;;;5066375;28;20637;-75
2021/12/26 12:08:27;;;;;;;7.70;5.03;;;-1.50;99.90;;;;;;5061019;28;20720;-76
2021/12/26 12:10:57;;;;;;;5.10;4.57;;;-1.30;99.90;;;;;;5052820;28;20615;-76
2021/12/26 12:13:26;;;;;;;6.53;4.70;;;-1.30;99.90;;;;;;5053019;28;21096;-76
2021/12/26 12:16:00;;;;;;;4.60;3.83;;;-1.50;99.90;;;;;;5081877;28;20673;-79
2021/12/26 12:18:27;;;;;;;3.43;3.10;;;-1.10;99.90;;;;;;5075618;28;20668;-77
2021/12/26 12:21:16;;;;;;;5.33;3.30;;;-1.30;99.90;;;;;;5068079;28;20629;-75
2021/12/26 12:24:07;;;;;;;4.10;3.30;;;-1.10;99.90;;;;;;5073134;28;20580;-75
2021/12/26 12:26:52;;;;;;;3.40;2.70;;;-1.20;99.90;;;;;;5068152;28;20610;-76
2021/12/26 12:29:29;;;;;;;3.83;2.87;;;-0.90;99.90;;;;;;5072615;28;20651;-75
2021/12/26 12:32:07;;;;;;;3.93;3.23;;;-1.00;99.90;;;;;;5062630;28;20660;-76
2021/12/26 12:35:01;;;;;;;4.27;2.77;;;-1.00;99.90;;;;;;5073359;28;20614;-76
2021/12/26 12:37:45;;;;;;;2.93;2.63;;;-1.00;99.90;;;;;;5061889;28;20609;-76
2021/12/26 12:40:29;;;;;;;3.27;2.80;;;-1.00;99.90;;;;;;5054455;28;21081;-75
2021/12/26 12:43:11;;;;;;;3.63;2.90;;;-0.90;99.90;;;;;;5054126;28;20606;-75
2021/12/26 12:45:56;;;;;;;3.50;2.90;;;-0.90;99.90;;;;;;5072567;28;20670;-76
2021/12/26 12:48:45;;;;;;;2.90;2.70;;;-0.90;99.90;;;;;;5047994;28;20929;-77
2021/12/26 12:51:14;;;;;;;4.60;3.00;;;-0.90;99.90;;;;;;5052816;28;20630;-76
2021/12/26 12:53:51;;;;;;;3.03;2.60;;;-0.80;99.90;;;;;;5072284;28;20609;-78
2021/12/26 12:56:40;;;;;;;3.43;2.90;;;-0.80;99.90;;;;;;5041986;28;20666;-76
2021/12/26 12:59:16;;;;;;;2.97;2.77;;;-0.60;99.90;;;;;;5064036;28;20663;-76